sensor_id;sensor_type;location;lat;lon;timestamp;P1;P2;P0
62591;PMS5003;48659;41.622;2.276;2023-02-12T00:00:49;104;91;
62591;PMS5003;48659;41.622;2.276;2023-02-12T00:03:16;94;83;
62591;PMS5003;48659;41.622;2.276;2023-02-12T00:05:44;97;90;
62591;PMS5003;48659;41.622;2.276;2023-02-12T00:08:11;99;84;
62591;PMS5003;48659;41.622;2.276;2023-02-12T00:10:39;94;89;
62591;PMS5003;48659;41.622;2.276;2023-02-12T00:13:07;91;85;
62591;PMS5003;48659;41.622;2.276;2023-02-12T00:15:37;88;83;
62591;PMS5003;48659;41.622;2.276;2023-02-12T00:18:04;90;78;
62591;PMS5003;48659;41.622;2.276;2023-02-12T00:20:32;98;88;
62591;PMS5003;48659;41.622;2.276;2023-02-12T00:23:00;109;101;
62591;PMS5003;48659;41.622;2.276;2023-02-12T00:25:27;101;89;
62591;PMS5003;48659;41.622;2.276;2023-02-12T00:27:55;98;95;
62591;PMS5003;48659;41.622;2.276;2023-02-12T00:30:22;106;90;
62591;PMS5003;48659;41.622;2.276;2023-02-12T00:32:49;103;95;
62591;PMS5003;48659;41.622;2.276;2023-02-12T00:35:16;88;83;
62591;PMS5003;48659;41.622;2.276;2023-02-12T00:37:44;94;86;
62591;PMS5003;48659;41.622;2.276;2023-02-12T00:40:11;102;88;
62591;PMS5003;48659;41.622;2.276;2023-02-12T00:42:40;95;87;
62591;PMS5003;48659;41.622;2.276;2023-02-12T00:45:11;101;92;
62591;PMS5003;48659;41.622;2.276;2023-02-12T00:47:39;99;90;
62591;PMS5003;48659;41.622;2.276;2023-02-12T00:50:06;115;107;
62591;PMS5003;48659;41.622;2.276;2023-02-12T00:52:33;133;117;
62591;PMS5003;48659;41.622;2.276;2023-02-12T00:55:01;142;131;
62591;PMS5003;48659;41.622;2.276;2023-02-12T00:57:29;138;127;
62591;PMS5003;48659;41.622;2.276;2023-02-12T00:59:57;142;128;
62591;PMS5003;48659;41.622;2.276;2023-02-12T01:02:25;132;123;
62591;PMS5003;48659;41.622;2.276;2023-02-12T01:04:53;143;123;
62591;PMS5003;48659;41.622;2.276;2023-02-12T01:07:21;123;110;
62591;PMS5003;48659;41.622;2.276;2023-02-12T01:09:48;123;114;
62591;PMS5003;48659;41.622;2.276;2023-02-12T01:12:15;130;115;
62591;PMS5003;48659;41.622;2.276;2023-02-12T01:14:42;128;115;
62591;PMS5003;48659;41.622;2.276;2023-02-12T01:17:11;139;123;
62591;PMS5003;48659;41.622;2.276;2023-02-12T01:19:38;130;119;
62591;PMS5003;48659;41.622;2.276;2023-02-12T01:22:05;130;114;
62591;PMS5003;48659;41.622;2.276;2023-02-12T01:24:32;135;124;
62591;PMS5003;48659;41.622;2.276;2023-02-12T01:27:00;136;121;
62591;PMS5003;48659;41.622;2.276;2023-02-12T01:29:27;131;119;
62591;PMS5003;48659;41.622;2.276;2023-02-12T01:31:55;155;131;
62591;PMS5003;48659;41.622;2.276;2023-02-12T01:34:22;151;133;
62591;PMS5003;48659;41.622;2.276;2023-02-12T01:36:49;137;130;
62591;PMS5003;48659;41.622;2.276;2023-02-12T01:39:16;144;133;
62591;PMS5003;48659;41.622;2.276;2023-02-12T01:41:44;146;124;
62591;PMS5003;48659;41.622;2.276;2023-02-12T01:44:14;133;124;
62591;PMS5003;48659;41.622;2.276;2023-02-12T01:46:44;140;128;
62591;PMS5003;48659;41.622;2.276;2023-02-12T01:49:14;151;135;
62591;PMS5003;48659;41.622;2.276;2023-02-12T01:51:44;133;123;
62591;PMS5003;48659;41.622;2.276;2023-02-12T01:54:15;131;122;
62591;PMS5003;48659;41.622;2.276;2023-02-12T01:56:46;134;120;
62591;PMS5003;48659;41.622;2.276;2023-02-12T01:59:14;128;121;
62591;PMS5003;48659;41.622;2.276;2023-02-12T02:01:45;128;125;
62591;PMS5003;48659;41.622;2.276;2023-02-12T02:04:14;120;112;
62591;PMS5003;48659;41.622;2.276;2023-02-12T02:06:47;126;114;
62591;PMS5003;48659;41.622;2.276;2023-02-12T02:09:19;125;109;
62591;PMS5003;48659;41.622;2.276;2023-02-12T02:11:48;128;110;
62591;PMS5003;48659;41.622;2.276;2023-02-12T02:14:15;114;102;
62591;PMS5003;48659;41.622;2.276;2023-02-12T02:16:45;124;107;
62591;PMS5003;48659;41.622;2.276;2023-02-12T02:19:23;119;106;
62591;PMS5003;48659;41.622;2.276;2023-02-12T02:22:17;123;113;
62591;PMS5003;48659;41.622;2.276;2023-02-12T02:25:04;113;102;
62591;PMS5003;48659;41.622;2.276;2023-02-12T02:27:52;112;102;
62591;PMS5003;48659;41.622;2.276;2023-02-12T02:30:34;122;106;
62591;PMS5003;48659;41.622;2.276;2023-02-12T02:33:16;111;104;
62591;PMS5003;48659;41.622;2.276;2023-02-12T02:35:54;104;97;
62591;PMS5003;48659;41.622;2.276;2023-02-12T02:38:30;115;107;
62591;PMS5003;48659;41.622;2.276;2023-02-12T02:41:14;110;96;
62591;PMS5003;48659;41.622;2.276;2023-02-12T02:43:47;111;100;
62591;PMS5003;48659;41.622;2.276;2023-02-12T02:46:17;107;90;
62591;PMS5003;48659;41.622;2.276;2023-02-12T02:48:53;108;89;
62591;PMS5003;48659;41.622;2.276;2023-02-12T02:51:24;89;86;
62591;PMS5003;48659;41.622;2.276;2023-02-12T02:53:59;99;91;
62591;PMS5003;48659;41.622;2.276;2023-02-12T02:56:31;101;86;
62591;PMS5003;48659;41.622;2.276;2023-02-12T02:59:04;95;85;
62591;PMS5003;48659;41.622;2.276;2023-02-12T03:01:40;96;86;
62591;PMS5003;48659;41.622;2.276;2023-02-12T03:04:11;83;78;
62591;PMS5003;48659;41.622;2.276;2023-02-12T03:06:46;95;90;
62591;PMS5003;48659;41.622;2.276;2023-02-12T03:09:18;98;84;
62591;PMS5003;48659;41.622;2.276;2023-02-12T03:11:49;97;86;
62591;PMS5003;48659;41.622;2.276;2023-02-12T03:14:19;82;76;
62591;PMS5003;48659;41.622;2.276;2023-02-12T03:16:53;96;85;
62591;PMS5003;48659;41.622;2.276;2023-02-12T03:19:26;96;77;
62591;PMS5003;48659;41.622;2.276;2023-02-12T03:21:59;82;65;
62591;PMS5003;48659;41.622;2.276;2023-02-12T03:24:43;78;73;
62591;PMS5003;48659;41.622;2.276;2023-02-12T03:27:15;90;80;
62591;PMS5003;48659;41.622;2.276;2023-02-12T03:29:46;79;73;
62591;PMS5003;48659;41.622;2.276;2023-02-12T03:32:21;83;77;
62591;PMS5003;48659;41.622;2.276;2023-02-12T03:34:58;87;76;
62591;PMS5003;48659;41.622;2.276;2023-02-12T03:37:37;94;82;
62591;PMS5003;48659;41.622;2.276;2023-02-12T03:40:11;82;74;
62591;PMS5003;48659;41.622;2.276;2023-02-12T03:42:52;89;82;
62591;PMS5003;48659;41.622;2.276;2023-02-12T03:45:27;82;78;
62591;PMS5003;48659;41.622;2.276;2023-02-12T03:48:05;88;76;
62591;PMS5003;48659;41.622;2.276;2023-02-12T03:50:38;79;74;
62591;PMS5003;48659;41.622;2.276;2023-02-12T03:53:10;81;70;
62591;PMS5003;48659;41.622;2.276;2023-02-12T03:55:39;75;70;
62591;PMS5003;48659;41.622;2.276;2023-02-12T03:58:12;91;80;
62591;PMS5003;48659;41.622;2.276;2023-02-12T04:00:45;74;66;
62591;PMS5003;48659;41.622;2.276;2023-02-12T04:03:13;83;69;
62591;PMS5003;48659;41.622;2.276;2023-02-12T04:05:40;67;64;
62591;PMS5003;48659;41.622;2.276;2023-02-12T04:08:08;76;67;
62591;PMS5003;48659;41.622;2.276;2023-02-12T04:10:40;71;70;
62591;PMS5003;48659;41.622;2.276;2023-02-12T04:13:18;80;74;
62591;PMS5003;48659;41.622;2.276;2023-02-12T04:15:56;78;70;
62591;PMS5003;48659;41.622;2.276;2023-02-12T04:18:34;79;72;
62591;PMS5003;48659;41.622;2.276;2023-02-12T04:21:09;75;66;
62591;PMS5003;48659;41.622;2.276;2023-02-12T04:23:47;75;69;
62591;PMS5003;48659;41.622;2.276;2023-02-12T04:26:23;70;62;
62591;PMS5003;48659;41.622;2.276;2023-02-12T04:29:10;69;69;
62591;PMS5003;48659;41.622;2.276;2023-02-12T04:31:45;72;65;
62591;PMS5003;48659;41.622;2.276;2023-02-12T04:34:17;67;66;
62591;PMS5003;48659;41.622;2.276;2023-02-12T04:36:52;64;59;
62591;PMS5003;48659;41.622;2.276;2023-02-12T04:39:27;75;68;
62591;PMS5003;48659;41.622;2.276;2023-02-12T04:41:58;74;67;
62591;PMS5003;48659;41.622;2.276;2023-02-12T04:44:26;68;63;
62591;PMS5003;48659;41.622;2.276;2023-02-12T04:46:56;73;68;
62591;PMS5003;48659;41.622;2.276;2023-02-12T04:49:23;69;63;
62591;PMS5003;48659;41.622;2.276;2023-02-12T04:51:52;79;63;
62591;PMS5003;48659;41.622;2.276;2023-02-12T04:54:20;71;67;
62591;PMS5003;48659;41.622;2.276;2023-02-12T04:56:49;73;64;
62591;PMS5003;48659;41.622;2.276;2023-02-12T04:59:21;80;70;
62591;PMS5003;48659;41.622;2.276;2023-02-12T05:01:50;76;65;
62591;PMS5003;48659;41.622;2.276;2023-02-12T05:04:18;67;61;
62591;PMS5003;48659;41.622;2.276;2023-02-12T05:06:45;77;66;
62591;PMS5003;48659;41.622;2.276;2023-02-12T05:09:14;69;61;
62591;PMS5003;48659;41.622;2.276;2023-02-12T05:11:43;78;72;
62591;PMS5003;48659;41.622;2.276;2023-02-12T05:14:11;70;59;
62591;PMS5003;48659;41.622;2.276;2023-02-12T05:16:38;73;64;
62591;PMS5003;48659;41.622;2.276;2023-02-12T05:19:06;72;65;
62591;PMS5003;48659;41.622;2.276;2023-02-12T05:21:33;82;73;
62591;PMS5003;48659;41.622;2.276;2023-02-12T05:24:01;71;63;
62591;PMS5003;48659;41.622;2.276;2023-02-12T05:26:29;76;68;
62591;PMS5003;48659;41.622;2.276;2023-02-12T05:28:57;72;61;
62591;PMS5003;48659;41.622;2.276;2023-02-12T05:31:24;75;63;
62591;PMS5003;48659;41.622;2.276;2023-02-12T05:33:52;79;69;
62591;PMS5003;48659;41.622;2.276;2023-02-12T05:36:21;69;61;
62591;PMS5003;48659;41.622;2.276;2023-02-12T05:38:49;77;64;
62591;PMS5003;48659;41.622;2.276;2023-02-12T05:41:18;69;61;
62591;PMS5003;48659;41.622;2.276;2023-02-12T05:43:47;74;63;
62591;PMS5003;48659;41.622;2.276;2023-02-12T05:46:14;70;65;
62591;PMS5003;48659;41.622;2.276;2023-02-12T05:48:43;74;65;
62591;PMS5003;48659;41.622;2.276;2023-02-12T05:51:12;70;66;
62591;PMS5003;48659;41.622;2.276;2023-02-12T05:53:41;76;66;
62591;PMS5003;48659;41.622;2.276;2023-02-12T05:56:10;67;65;
62591;PMS5003;48659;41.622;2.276;2023-02-12T05:58:40;58;53;
62591;PMS5003;48659;41.622;2.276;2023-02-12T06:01:10;64;58;
62591;PMS5003;48659;41.622;2.276;2023-02-12T06:03:39;61;55;
62591;PMS5003;48659;41.622;2.276;2023-02-12T06:06:08;67;63;
62591;PMS5003;48659;41.622;2.276;2023-02-12T06:08:36;86;72;
62591;PMS5003;48659;41.622;2.276;2023-02-12T06:11:04;63;59;
62591;PMS5003;48659;41.622;2.276;2023-02-12T06:13:34;82;74;
62591;PMS5003;48659;41.622;2.276;2023-02-12T06:16:01;84;74;
62591;PMS5003;48659;41.622;2.276;2023-02-12T06:18:30;78;74;
62591;PMS5003;48659;41.622;2.276;2023-02-12T06:21:01;78;68;
62591;PMS5003;48659;41.622;2.276;2023-02-12T06:23:29;86;74;
62591;PMS5003;48659;41.622;2.276;2023-02-12T06:25:57;86;74;
62591;PMS5003;48659;41.622;2.276;2023-02-12T06:28:25;101;85;
62591;PMS5003;48659;41.622;2.276;2023-02-12T06:30:52;90;80;
62591;PMS5003;48659;41.622;2.276;2023-02-12T06:33:19;94;85;
62591;PMS5003;48659;41.622;2.276;2023-02-12T06:35:47;94;82;
62591;PMS5003;48659;41.622;2.276;2023-02-12T06:38:14;99;84;
62591;PMS5003;48659;41.622;2.276;2023-02-12T06:40:42;80;77;
62591;PMS5003;48659;41.622;2.276;2023-02-12T06:43:09;83;75;
62591;PMS5003;48659;41.622;2.276;2023-02-12T06:45:36;77;69;
62591;PMS5003;48659;41.622;2.276;2023-02-12T06:48:04;77;69;
62591;PMS5003;48659;41.622;2.276;2023-02-12T06:50:31;85;75;
62591;PMS5003;48659;41.622;2.276;2023-02-12T06:52:59;79;72;
62591;PMS5003;48659;41.622;2.276;2023-02-12T06:55:27;79;69;
62591;PMS5003;48659;41.622;2.276;2023-02-12T06:57:54;84;78;
62591;PMS5003;48659;41.622;2.276;2023-02-12T07:00:22;80;70;
62591;PMS5003;48659;41.622;2.276;2023-02-12T07:02:52;81;74;
62591;PMS5003;48659;41.622;2.276;2023-02-12T07:05:19;82;71;
62591;PMS5003;48659;41.622;2.276;2023-02-12T07:07:48;79;70;
62591;PMS5003;48659;41.622;2.276;2023-02-12T07:10:16;74;69;
62591;PMS5003;48659;41.622;2.276;2023-02-12T07:12:46;75;66;
62591;PMS5003;48659;41.622;2.276;2023-02-12T07:15:13;73;65;
62591;PMS5003;48659;41.622;2.276;2023-02-12T07:17:40;76;66;
62591;PMS5003;48659;41.622;2.276;2023-02-12T07:20:08;86;75;
62591;PMS5003;48659;41.622;2.276;2023-02-12T07:22:36;76;71;
62591;PMS5003;48659;41.622;2.276;2023-02-12T07:25:03;79;70;
62591;PMS5003;48659;41.622;2.276;2023-02-12T07:27:31;77;69;
62591;PMS5003;48659;41.622;2.276;2023-02-12T07:30:03;73;66;
62591;PMS5003;48659;41.622;2.276;2023-02-12T07:32:33;73;70;
62591;PMS5003;48659;41.622;2.276;2023-02-12T07:35:00;76;70;
62591;PMS5003;48659;41.622;2.276;2023-02-12T07:37:28;82;74;
62591;PMS5003;48659;41.622;2.276;2023-02-12T07:39:55;79;72;
62591;PMS5003;48659;41.622;2.276;2023-02-12T07:42:22;76;72;
62591;PMS5003;48659;41.622;2.276;2023-02-12T07:44:50;71;67;
62591;PMS5003;48659;41.622;2.276;2023-02-12T07:47:17;77;66;
62591;PMS5003;48659;41.622;2.276;2023-02-12T07:49:45;81;67;
62591;PMS5003;48659;41.622;2.276;2023-02-12T07:52:12;80;71;
62591;PMS5003;48659;41.622;2.276;2023-02-12T07:54:39;83;67;
62591;PMS5003;48659;41.622;2.276;2023-02-12T07:57:07;80;74;
62591;PMS5003;48659;41.622;2.276;2023-02-12T07:59:34;94;83;
62591;PMS5003;48659;41.622;2.276;2023-02-12T08:02:02;83;78;
62591;PMS5003;48659;41.622;2.276;2023-02-12T08:04:30;82;77;
62591;PMS5003;48659;41.622;2.276;2023-02-12T08:06:57;99;92;
62591;PMS5003;48659;41.622;2.276;2023-02-12T08:09:25;98;91;
62591;PMS5003;48659;41.622;2.276;2023-02-12T08:11:54;100;89;
62591;PMS5003;48659;41.622;2.276;2023-02-12T08:14:21;100;93;
62591;PMS5003;48659;41.622;2.276;2023-02-12T08:16:48;101;93;
62591;PMS5003;48659;41.622;2.276;2023-02-12T08:19:16;110;96;
62591;PMS5003;48659;41.622;2.276;2023-02-12T08:21:45;114;105;
62591;PMS5003;48659;41.622;2.276;2023-02-12T08:24:15;113;104;
62591;PMS5003;48659;41.622;2.276;2023-02-12T08:26:43;115;98;
62591;PMS5003;48659;41.622;2.276;2023-02-12T08:29:12;100;91;
62591;PMS5003;48659;41.622;2.276;2023-02-12T08:31:41;103;94;
62591;PMS5003;48659;41.622;2.276;2023-02-12T08:34:15;105;96;
62591;PMS5003;48659;41.622;2.276;2023-02-12T08:36:44;115;98;
62591;PMS5003;48659;41.622;2.276;2023-02-12T08:39:14;101;92;
62591;PMS5003;48659;41.622;2.276;2023-02-12T08:41:43;99;97;
62591;PMS5003;48659;41.622;2.276;2023-02-12T08:44:11;104;94;
62591;PMS5003;48659;41.622;2.276;2023-02-12T08:46:41;117;101;
62591;PMS5003;48659;41.622;2.276;2023-02-12T08:49:12;120;116;
62591;PMS5003;48659;41.622;2.276;2023-02-12T08:51:42;105;93;
62591;PMS5003;48659;41.622;2.276;2023-02-12T08:54:12;99;86;
62591;PMS5003;48659;41.622;2.276;2023-02-12T08:56:41;106;91;
62591;PMS5003;48659;41.622;2.276;2023-02-12T08:59:21;97;89;
62591;PMS5003;48659;41.622;2.276;2023-02-12T09:01:49;100;92;
62591;PMS5003;48659;41.622;2.276;2023-02-12T09:04:19;91;85;
62591;PMS5003;48659;41.622;2.276;2023-02-12T09:06:48;107;99;
62591;PMS5003;48659;41.622;2.276;2023-02-12T09:09:16;101;92;
62591;PMS5003;48659;41.622;2.276;2023-02-12T09:11:44;100;89;
62591;PMS5003;48659;41.622;2.276;2023-02-12T09:14:12;95;89;
62591;PMS5003;48659;41.622;2.276;2023-02-12T09:16:40;101;96;
62591;PMS5003;48659;41.622;2.276;2023-02-12T09:19:12;111;101;
62591;PMS5003;48659;41.622;2.276;2023-02-12T09:21:40;113;100;
62591;PMS5003;48659;41.622;2.276;2023-02-12T09:24:10;97;89;
62591;PMS5003;48659;41.622;2.276;2023-02-12T09:26:38;103;94;
62591;PMS5003;48659;41.622;2.276;2023-02-12T09:29:11;101;90;
62591;PMS5003;48659;41.622;2.276;2023-02-12T09:31:39;90;87;
62591;PMS5003;48659;41.622;2.276;2023-02-12T09:34:07;96;88;
62591;PMS5003;48659;41.622;2.276;2023-02-12T09:36:34;99;93;
62591;PMS5003;48659;41.622;2.276;2023-02-12T09:39:03;100;93;
62591;PMS5003;48659;41.622;2.276;2023-02-12T09:41:36;113;107;
62591;PMS5003;48659;41.622;2.276;2023-02-12T09:42:53;114;105;
62591;PMS5003;48659;41.622;2.276;2023-02-12T09:45:29;109;97;
62591;PMS5003;48659;41.622;2.276;2023-02-12T09:48:05;122;111;
62591;PMS5003;48659;41.622;2.276;2023-02-12T09:50:45;121;112;
62591;PMS5003;48659;41.622;2.276;2023-02-12T09:53:18;125;120;
62591;PMS5003;48659;41.622;2.276;2023-02-12T09:55:48;128;121;
62591;PMS5003;48659;41.622;2.276;2023-02-12T09:58:17;117;108;
62591;PMS5003;48659;41.622;2.276;2023-02-12T10:00:49;108;96;
62591;PMS5003;48659;41.622;2.276;2023-02-12T10:03:16;91;87;
62591;PMS5003;48659;41.622;2.276;2023-02-12T10:05:46;105;93;
62591;PMS5003;48659;41.622;2.276;2023-02-12T10:08:22;91;83;
62591;PMS5003;48659;41.622;2.276;2023-02-12T10:11:00;100;90;
62591;PMS5003;48659;41.622;2.276;2023-02-12T10:13:48;96;89;
62591;PMS5003;48659;41.622;2.276;2023-02-12T10:16:32;104;93;
62591;PMS5003;48659;41.622;2.276;2023-02-12T10:19:13;99;94;
62591;PMS5003;48659;41.622;2.276;2023-02-12T10:21:55;94;83;
62591;PMS5003;48659;41.622;2.276;2023-02-12T10:24:35;93;90;
62591;PMS5003;48659;41.622;2.276;2023-02-12T10:27:12;91;82;
62591;PMS5003;48659;41.622;2.276;2023-02-12T10:29:42;92;89;
62591;PMS5003;48659;41.622;2.276;2023-02-12T10:32:13;99;87;
62591;PMS5003;48659;41.622;2.276;2023-02-12T10:34:50;97;86;
62591;PMS5003;48659;41.622;2.276;2023-02-12T10:37:21;97;87;
62591;PMS5003;48659;41.622;2.276;2023-02-12T10:39:58;89;80;
62591;PMS5003;48659;41.622;2.276;2023-02-12T10:42:35;85;81;
62591;PMS5003;48659;41.622;2.276;2023-02-12T10:45:08;93;84;
62591;PMS5003;48659;41.622;2.276;2023-02-12T10:47:40;95;91;
62591;PMS5003;48659;41.622;2.276;2023-02-12T10:50:14;96;92;
62591;PMS5003;48659;41.622;2.276;2023-02-12T10:52:48;119;108;
62591;PMS5003;48659;41.622;2.276;2023-02-12T10:55:22;91;83;
62591;PMS5003;48659;41.622;2.276;2023-02-12T10:57:51;91;79;
62591;PMS5003;48659;41.622;2.276;2023-02-12T11:00:22;90;84;
62591;PMS5003;48659;41.622;2.276;2023-02-12T11:03:00;83;73;
62591;PMS5003;48659;41.622;2.276;2023-02-12T11:05:42;99;88;
62591;PMS5003;48659;41.622;2.276;2023-02-12T11:08:16;88;81;
62591;PMS5003;48659;41.622;2.276;2023-02-12T11:10:55;84;78;
62591;PMS5003;48659;41.622;2.276;2023-02-12T11:13:43;90;86;
62591;PMS5003;48659;41.622;2.276;2023-02-12T11:16:26;86;79;
62591;PMS5003;48659;41.622;2.276;2023-02-12T11:18:57;85;81;
62591;PMS5003;48659;41.622;2.276;2023-02-12T11:21:28;89;81;
62591;PMS5003;48659;41.622;2.276;2023-02-12T11:23:56;93;82;
62591;PMS5003;48659;41.622;2.276;2023-02-12T11:26:46;85;79;
62591;PMS5003;48659;41.622;2.276;2023-02-12T11:29:18;87;80;
62591;PMS5003;48659;41.622;2.276;2023-02-12T11:31:58;98;90;
62591;PMS5003;48659;41.622;2.276;2023-02-12T11:34:27;90;82;
62591;PMS5003;48659;41.622;2.276;2023-02-12T11:36:55;74;74;
62591;PMS5003;48659;41.622;2.276;2023-02-12T11:39:23;86;82;
62591;PMS5003;48659;41.622;2.276;2023-02-12T11:41:54;75;69;
62591;PMS5003;48659;41.622;2.276;2023-02-12T11:44:24;76;70;
62591;PMS5003;48659;41.622;2.276;2023-02-12T11:46:54;88;85;
62591;PMS5003;48659;41.622;2.276;2023-02-12T11:49:26;75;70;
62591;PMS5003;48659;41.622;2.276;2023-02-12T11:51:58;68;65;
62591;PMS5003;48659;41.622;2.276;2023-02-12T11:54:29;68;64;
62591;PMS5003;48659;41.622;2.276;2023-02-12T11:56:59;69;63;
62591;PMS5003;48659;41.622;2.276;2023-02-12T11:59:30;66;63;
62591;PMS5003;48659;41.622;2.276;2023-02-12T12:02:03;55;54;
62591;PMS5003;48659;41.622;2.276;2023-02-12T12:04:44;70;65;
62591;PMS5003;48659;41.622;2.276;2023-02-12T12:07:15;76;71;
62591;PMS5003;48659;41.622;2.276;2023-02-12T12:09:48;78;74;
62591;PMS5003;48659;41.622;2.276;2023-02-12T12:12:24;58;52;
62591;PMS5003;48659;41.622;2.276;2023-02-12T12:15:14;66;57;
62591;PMS5003;48659;41.622;2.276;2023-02-12T12:17:48;60;57;
62591;PMS5003;48659;41.622;2.276;2023-02-12T12:20:21;51;44;
62591;PMS5003;48659;41.622;2.276;2023-02-12T12:22:56;49;45;
62591;PMS5003;48659;41.622;2.276;2023-02-12T12:25:29;48;47;
62591;PMS5003;48659;41.622;2.276;2023-02-12T12:28:20;45;42;
62591;PMS5003;48659;41.622;2.276;2023-02-12T12:30:58;48;45;
62591;PMS5003;48659;41.622;2.276;2023-02-12T12:33:42;45;40;
62591;PMS5003;48659;41.622;2.276;2023-02-12T12:36:33;40;38;
62591;PMS5003;48659;41.622;2.276;2023-02-12T12:39:15;51;46;
62591;PMS5003;48659;41.622;2.276;2023-02-12T12:41:57;41;38;
62591;PMS5003;48659;41.622;2.276;2023-02-12T12:45:17;42;40;
62591;PMS5003;48659;41.622;2.276;2023-02-12T12:48:00;35;32;
62591;PMS5003;48659;41.622;2.276;2023-02-12T12:50:48;34;32;
62591;PMS5003;48659;41.622;2.276;2023-02-12T12:53:28;42;33;
62591;PMS5003;48659;41.622;2.276;2023-02-12T12:56:09;47;41;
62591;PMS5003;48659;41.622;2.276;2023-02-12T12:58:51;36;31;
62591;PMS5003;48659;41.622;2.276;2023-02-12T13:01:45;33;30;
62591;PMS5003;48659;41.622;2.276;2023-02-12T13:04:44;29;23;
62591;PMS5003;48659;41.622;2.276;2023-02-12T13:07:28;28;28;
62591;PMS5003;48659;41.622;2.276;2023-02-12T13:10:16;24;24;
62591;PMS5003;48659;41.622;2.276;2023-02-12T13:12:56;27;24;
62591;PMS5003;48659;41.622;2.276;2023-02-12T13:15:38;27;27;
62591;PMS5003;48659;41.622;2.276;2023-02-12T13:18:13;31;26;
62591;PMS5003;48659;41.622;2.276;2023-02-12T13:20:52;35;32;
62591;PMS5003;48659;41.622;2.276;2023-02-12T13:23:29;27;25;
62591;PMS5003;48659;41.622;2.276;2023-02-12T13:26:06;28;25;
62591;PMS5003;48659;41.622;2.276;2023-02-12T13:28:39;22;22;
62591;PMS5003;48659;41.622;2.276;2023-02-12T13:31:13;24;20;
62591;PMS5003;48659;41.622;2.276;2023-02-12T13:33:45;21;19;
62591;PMS5003;48659;41.622;2.276;2023-02-12T13:36:17;23;21;
62591;PMS5003;48659;41.622;2.276;2023-02-12T13:38:46;18;17;
62591;PMS5003;48659;41.622;2.276;2023-02-12T13:41:17;16;16;
62591;PMS5003;48659;41.622;2.276;2023-02-12T13:43:48;14;14;
62591;PMS5003;48659;41.622;2.276;2023-02-12T13:46:27;23;18;
62591;PMS5003;48659;41.622;2.276;2023-02-12T13:49:04;17;16;
62591;PMS5003;48659;41.622;2.276;2023-02-12T13:51:41;22;19;
62591;PMS5003;48659;41.622;2.276;2023-02-12T13:54:13;22;17;
62591;PMS5003;48659;41.622;2.276;2023-02-12T13:56:50;17;17;
62591;PMS5003;48659;41.622;2.276;2023-02-12T13:59:53;23;22;
62591;PMS5003;48659;41.622;2.276;2023-02-12T14:02:41;22;20;
62591;PMS5003;48659;41.622;2.276;2023-02-12T14:05:15;22;20;
62591;PMS5003;48659;41.622;2.276;2023-02-12T14:07:49;21;20;
62591;PMS5003;48659;41.622;2.276;2023-02-12T14:10:20;25;24;
62591;PMS5003;48659;41.622;2.276;2023-02-12T14:12:51;28;24;
62591;PMS5003;48659;41.622;2.276;2023-02-12T14:15:25;28;26;
62591;PMS5003;48659;41.622;2.276;2023-02-12T14:18:03;35;33;
62591;PMS5003;48659;41.622;2.276;2023-02-12T14:21:32;30;28;
62591;PMS5003;48659;41.622;2.276;2023-02-12T14:25:25;42;34;
62591;PMS5003;48659;41.622;2.276;2023-02-12T14:28:04;34;32;
62591;PMS5003;48659;41.622;2.276;2023-02-12T14:31:17;34;34;
62591;PMS5003;48659;41.622;2.276;2023-02-12T14:34:36;35;33;
62591;PMS5003;48659;41.622;2.276;2023-02-12T14:37:14;31;31;
62591;PMS5003;48659;41.622;2.276;2023-02-12T14:39:43;33;33;
62591;PMS5003;48659;41.622;2.276;2023-02-12T14:42:52;32;30;
62591;PMS5003;48659;41.622;2.276;2023-02-12T14:45:27;33;32;
62591;PMS5003;48659;41.622;2.276;2023-02-12T14:47:58;29;29;
62591;PMS5003;48659;41.622;2.276;2023-02-12T14:50:30;29;28;
62591;PMS5003;48659;41.622;2.276;2023-02-12T14:53:06;25;24;
62591;PMS5003;48659;41.622;2.276;2023-02-12T14:55:47;23;22;
62591;PMS5003;48659;41.622;2.276;2023-02-12T14:58:17;27;25;
62591;PMS5003;48659;41.622;2.276;2023-02-12T15:00:47;24;24;
62591;PMS5003;48659;41.622;2.276;2023-02-12T15:03:19;24;22;
62591;PMS5003;48659;41.622;2.276;2023-02-12T15:05:54;27;26;
62591;PMS5003;48659;41.622;2.276;2023-02-12T15:08:27;31;27;
62591;PMS5003;48659;41.622;2.276;2023-02-12T15:11:04;30;26;
62591;PMS5003;48659;41.622;2.276;2023-02-12T15:13:47;25;25;
62591;PMS5003;48659;41.622;2.276;2023-02-12T15:16:22;22;22;
62591;PMS5003;48659;41.622;2.276;2023-02-12T15:18:58;29;26;
62591;PMS5003;48659;41.622;2.276;2023-02-12T15:21:30;24;21;
62591;PMS5003;48659;41.622;2.276;2023-02-12T15:24:00;23;23;
62591;PMS5003;48659;41.622;2.276;2023-02-12T15:26:38;24;23;
62591;PMS5003;48659;41.622;2.276;2023-02-12T15:29:15;23;21;
62591;PMS5003;48659;41.622;2.276;2023-02-12T15:31:49;25;25;
62591;PMS5003;48659;41.622;2.276;2023-02-12T15:34:20;24;24;
62591;PMS5003;48659;41.622;2.276;2023-02-12T15:36:49;22;20;
62591;PMS5003;48659;41.622;2.276;2023-02-12T15:39:19;23;20;
62591;PMS5003;48659;41.622;2.276;2023-02-12T15:41:48;20;19;
62591;PMS5003;48659;41.622;2.276;2023-02-12T15:44:18;22;20;
62591;PMS5003;48659;41.622;2.276;2023-02-12T15:46:57;22;21;
62591;PMS5003;48659;41.622;2.276;2023-02-12T15:49:29;24;24;
62591;PMS5003;48659;41.622;2.276;2023-02-12T15:52:00;24;20;
62591;PMS5003;48659;41.622;2.276;2023-02-12T15:54:37;27;23;
62591;PMS5003;48659;41.622;2.276;2023-02-12T15:57:13;20;19;
62591;PMS5003;48659;41.622;2.276;2023-02-12T15:59:48;21;19;
62591;PMS5003;48659;41.622;2.276;2023-02-12T16:02:17;20;20;
62591;PMS5003;48659;41.622;2.276;2023-02-12T16:04:46;23;22;
62591;PMS5003;48659;41.622;2.276;2023-02-12T16:07:14;23;20;
62591;PMS5003;48659;41.622;2.276;2023-02-12T16:09:43;18;17;
62591;PMS5003;48659;41.622;2.276;2023-02-12T16:12:12;24;21;
62591;PMS5003;48659;41.622;2.276;2023-02-12T16:14:44;30;25;
62591;PMS5003;48659;41.622;2.276;2023-02-12T16:17:19;21;20;
62591;PMS5003;48659;41.622;2.276;2023-02-12T16:19:53;23;21;
62591;PMS5003;48659;41.622;2.276;2023-02-12T16:22:23;22;22;
62591;PMS5003;48659;41.622;2.276;2023-02-12T16:24:54;27;26;
62591;PMS5003;48659;41.622;2.276;2023-02-12T16:27:23;23;20;
62591;PMS5003;48659;41.622;2.276;2023-02-12T16:29:53;25;22;
62591;PMS5003;48659;41.622;2.276;2023-02-12T16:32:26;22;21;
62591;PMS5003;48659;41.622;2.276;2023-02-12T16:34:57;22;21;
62591;PMS5003;48659;41.622;2.276;2023-02-12T16:37:46;28;28;
62591;PMS5003;48659;41.622;2.276;2023-02-12T16:40:24;23;22;
62591;PMS5003;48659;41.622;2.276;2023-02-12T16:42:56;24;23;
62591;PMS5003;48659;41.622;2.276;2023-02-12T16:45:34;24;21;
62591;PMS5003;48659;41.622;2.276;2023-02-12T16:48:08;28;27;